SQI454 KSDF-KLAX
Flight info
| Callsign | SQI454 |
|---|---|
| Flight time | 4h 13m |
| Altitude | 32000 |
| Route | LLIZY1 DAAVE ENL KK54G SLN RSK/N0476F340 KD39Q KL36O KL33M DNERO ANJLL4 |
| Aircraft | MD11/H-SDE1E2E3FGHIJ2J3J4J5M1RWXY/LB1D1 |
Departure
| Time | 2026-04-23 01:50 |
|---|---|
| Airport | Louisville Muhammad Ali International Airport (KSDF) |
Arrival
| Time | 2026-04-23 06:04 |
|---|---|
| Airport | Los Angeles International Airport (KLAX) |
| Time | Latitude | Longitude | Altitude | Speed | Heading |
|---|---|---|---|---|---|
| 2026-04-23 01:34 | 38.17326 | -85.73103 | 487 ft | 0 kts | 176° |
| 2026-04-23 01:41 | 38.17334 | -85.73103 | 486 ft | 2 kts | 175° |
| 2026-04-23 01:41 | 38.17351 | -85.73104 | 491 ft | 2 kts | 181° |
| 2026-04-23 01:41 | 38.17368 | -85.73102 | 489 ft | 2 kts | 209° |
| 2026-04-23 01:41 | 38.17381 | -85.73090 | 487 ft | 2 kts | 222° |
| 2026-04-23 01:42 | 38.17391 | -85.73074 | 487 ft | 2 kts | 258° |
| 2026-04-23 01:42 | 38.17392 | -85.73053 | 490 ft | 2 kts | 282° |
| 2026-04-23 01:42 | 38.17390 | -85.73043 | 487 ft | 1 kts | 289° |
| 2026-04-23 01:42 | 38.17390 | -85.73042 | 487 ft | 0 kts | 289° |
| 2026-04-23 01:44 | 38.17391 | -85.73043 | 487 ft | 0 kts | 289° |
| 2026-04-23 01:44 | 38.17391 | -85.73046 | 487 ft | 0 kts | 289° |
| 2026-04-23 01:45 | 38.17392 | -85.73050 | 487 ft | 1 kts | 290° |
| 2026-04-23 01:45 | 38.17397 | -85.73065 | 488 ft | 3 kts | 292° |
| 2026-04-23 01:45 | 38.17408 | -85.73103 | 491 ft | 7 kts | 289° |
| 2026-04-23 01:45 | 38.17438 | -85.73207 | 488 ft | 17 kts | 291° |
| 2026-04-23 01:46 | 38.17487 | -85.73363 | 490 ft | 19 kts | 292° |
| 2026-04-23 01:46 | 38.17535 | -85.73521 | 486 ft | 20 kts | 290° |
| 2026-04-23 01:46 | 38.17553 | -85.73582 | 484 ft | 20 kts | 290° |
| 2026-04-23 01:46 | 38.17604 | -85.73750 | 486 ft | 20 kts | 291° |
| 2026-04-23 01:47 | 38.17654 | -85.73918 | 487 ft | 21 kts | 291° |
| 2026-04-23 01:47 | 38.17697 | -85.74054 | 486 ft | 16 kts | 292° |
| 2026-04-23 01:47 | 38.17740 | -85.74194 | 493 ft | 18 kts | 290° |
| 2026-04-23 01:47 | 38.17788 | -85.74356 | 488 ft | 21 kts | 291° |
| 2026-04-23 01:48 | 38.17891 | -85.74451 | 499 ft | 19 kts | 341° |
| 2026-04-23 01:48 | 38.18031 | -85.74500 | 492 ft | 23 kts | 345° |
| 2026-04-23 01:48 | 38.18200 | -85.74555 | 491 ft | 26 kts | 345° |
| 2026-04-23 01:48 | 38.18373 | -85.74614 | 489 ft | 21 kts | 345° |
| 2026-04-23 01:49 | 38.18469 | -85.74659 | 488 ft | 7 kts | 316° |
| 2026-04-23 01:49 | 38.18474 | -85.74716 | 488 ft | 11 kts | 264° |
| 2026-04-23 01:49 | 38.18438 | -85.74778 | 487 ft | 7 kts | 192° |
| 2026-04-23 01:49 | 38.18377 | -85.74768 | 489 ft | 11 kts | 169° |
| 2026-04-23 01:50 | 38.18280 | -85.74738 | 491 ft | 26 kts | 166° |
| 2026-04-23 01:50 | 38.17773 | -85.74569 | 500 ft | 124 kts | 165° |
| 2026-04-23 01:50 | 38.16729 | -85.74214 | 812 ft | 168 kts | 165° |
| 2026-04-23 01:50 | 38.15652 | -85.73768 | 1925 ft | 161 kts | 171° |
| 2026-04-23 01:51 | 38.14567 | -85.73423 | 2980 ft | 161 kts | 174° |
| 2026-04-23 01:51 | 38.13490 | -85.73155 | 4165 ft | 154 kts | 179° |
| 2026-04-23 01:51 | 38.12308 | -85.73066 | 4963 ft | 195 kts | 186° |
| 2026-04-23 01:51 | 38.10773 | -85.73139 | 5509 ft | 233 kts | 187° |
| 2026-04-23 01:52 | 38.09135 | -85.73354 | 6598 ft | 245 kts | 196° |
| 2026-04-23 01:52 | 38.07497 | -85.74209 | 7338 ft | 257 kts | 218° |
| 2026-04-23 01:52 | 38.06254 | -85.75860 | 8380 ft | 263 kts | 241° |
| 2026-04-23 01:52 | 38.05670 | -85.78074 | 9453 ft | 270 kts | 263° |
| 2026-04-23 01:53 | 38.05572 | -85.80485 | 10306 ft | 286 kts | 270° |
| 2026-04-23 01:53 | 38.05750 | -85.83181 | 10439 ft | 326 kts | 281° |
| 2026-04-23 01:53 | 38.06325 | -85.86088 | 11088 ft | 344 kts | 286° |
| 2026-04-23 01:53 | 38.07005 | -85.89021 | 12096 ft | 351 kts | 284° |
| 2026-04-23 01:54 | 38.07313 | -85.92131 | 13127 ft | 358 kts | 272° |
| 2026-04-23 01:54 | 38.07260 | -85.95317 | 14088 ft | 365 kts | 267° |
| 2026-04-23 01:54 | 38.07063 | -85.98554 | 14963 ft | 371 kts | 266° |
| 2026-04-23 01:54 | 38.06819 | -86.01848 | 15829 ft | 377 kts | 265° |
| 2026-04-23 01:55 | 38.06685 | -86.05197 | 16615 ft | 382 kts | 274° |
| 2026-04-23 01:55 | 38.06999 | -86.08517 | 17459 ft | 386 kts | 282° |
| 2026-04-23 01:55 | 38.07575 | -86.11868 | 18285 ft | 391 kts | 285° |
| 2026-04-23 01:55 | 38.08251 | -86.15232 | 18998 ft | 396 kts | 286° |
| 2026-04-23 01:56 | 38.08954 | -86.18637 | 19700 ft | 400 kts | 286° |
| 2026-04-23 01:56 | 38.09656 | -86.22085 | 20385 ft | 405 kts | 286° |
| 2026-04-23 01:56 | 38.10347 | -86.25564 | 21054 ft | 409 kts | 285° |
| 2026-04-23 01:56 | 38.11036 | -86.29101 | 21700 ft | 414 kts | 285° |
| 2026-04-23 01:57 | 38.11723 | -86.32678 | 22365 ft | 418 kts | 285° |
| 2026-04-23 01:57 | 38.12411 | -86.36294 | 23043 ft | 423 kts | 285° |
| 2026-04-23 01:57 | 38.13102 | -86.39939 | 23712 ft | 427 kts | 285° |
| 2026-04-23 01:57 | 38.13798 | -86.43626 | 24320 ft | 431 kts | 285° |
| 2026-04-23 01:58 | 38.14498 | -86.47340 | 24957 ft | 434 kts | 285° |
| 2026-04-23 01:58 | 38.15125 | -86.51098 | 25555 ft | 439 kts | 280° |
| 2026-04-23 01:58 | 38.15316 | -86.54990 | 26234 ft | 444 kts | 272° |
| 2026-04-23 01:58 | 38.15184 | -86.58922 | 26879 ft | 448 kts | 268° |
| 2026-04-23 01:59 | 38.14910 | -86.62890 | 27628 ft | 449 kts | 266° |
| 2026-04-23 01:59 | 38.14604 | -86.66832 | 28495 ft | 447 kts | 266° |
| 2026-04-23 01:59 | 38.14312 | -86.70750 | 29376 ft | 444 kts | 267° |
| 2026-04-23 01:59 | 38.14127 | -86.74660 | 30177 ft | 440 kts | 273° |
| 2026-04-23 02:00 | 38.14310 | -86.78472 | 30766 ft | 438 kts | 279° |
| 2026-04-23 02:00 | 38.14741 | -86.82321 | 31176 ft | 438 kts | 282° |
| 2026-04-23 02:00 | 38.15274 | -86.86120 | 31570 ft | 436 kts | 283° |
| 2026-04-23 02:00 | 38.15829 | -86.89899 | 31893 ft | 436 kts | 283° |
| 2026-04-23 02:01 | 38.16895 | -86.97456 | 31985 ft | 441 kts | 282° |
| 2026-04-23 02:01 | 38.17915 | -87.05177 | 31994 ft | 445 kts | 282° |
| 2026-04-23 02:02 | 38.18905 | -87.12916 | 31997 ft | 444 kts | 282° |
| 2026-04-23 02:02 | 38.19880 | -87.20610 | 31991 ft | 442 kts | 282° |
| 2026-04-23 02:03 | 38.20859 | -87.28364 | 31982 ft | 443 kts | 282° |
| 2026-04-23 02:03 | 38.21831 | -87.36090 | 31983 ft | 444 kts | 282° |
| 2026-04-23 02:04 | 38.22799 | -87.43823 | 31981 ft | 443 kts | 282° |
| 2026-04-23 02:04 | 38.23762 | -87.51562 | 31982 ft | 442 kts | 282° |
| 2026-04-23 02:05 | 38.24720 | -87.59301 | 31980 ft | 441 kts | 281° |
| 2026-04-23 02:05 | 38.25673 | -87.67042 | 31982 ft | 443 kts | 281° |
| 2026-04-23 02:06 | 38.26619 | -87.74779 | 31977 ft | 443 kts | 281° |
| 2026-04-23 02:06 | 38.27546 | -87.82515 | 31969 ft | 443 kts | 281° |
| 2026-04-23 02:07 | 38.28451 | -87.90263 | 31969 ft | 441 kts | 281° |
| 2026-04-23 02:07 | 38.29366 | -87.97998 | 31968 ft | 440 kts | 281° |
| 2026-04-23 02:08 | 38.30286 | -88.05730 | 31967 ft | 441 kts | 281° |
| 2026-04-23 02:08 | 38.31197 | -88.13408 | 31971 ft | 442 kts | 281° |
| 2026-04-23 02:09 | 38.32108 | -88.21145 | 31971 ft | 442 kts | 281° |
| 2026-04-23 02:09 | 38.33014 | -88.28876 | 31974 ft | 442 kts | 281° |
| 2026-04-23 02:10 | 38.33911 | -88.36585 | 31973 ft | 441 kts | 281° |
| 2026-04-23 02:10 | 38.34808 | -88.44335 | 31972 ft | 440 kts | 281° |
| 2026-04-23 02:11 | 38.35697 | -88.52060 | 31976 ft | 439 kts | 281° |
| 2026-04-23 02:11 | 38.36580 | -88.59784 | 31973 ft | 440 kts | 281° |
| 2026-04-23 02:12 | 38.37456 | -88.67492 | 31972 ft | 440 kts | 281° |
| 2026-04-23 02:12 | 38.38321 | -88.75152 | 31971 ft | 439 kts | 281° |
| 2026-04-23 02:13 | 38.39187 | -88.82867 | 31969 ft | 438 kts | 281° |
| 2026-04-23 02:13 | 38.40008 | -88.90587 | 31971 ft | 438 kts | 281° |
| 2026-04-23 02:14 | 38.40818 | -88.98297 | 31970 ft | 438 kts | 281° |
| 2026-04-23 02:14 | 38.41579 | -89.06025 | 31962 ft | 439 kts | 278° |
| 2026-04-23 02:15 | 38.42153 | -89.16388 | 31963 ft | 440 kts | 279° |
| 2026-04-23 02:16 | 38.43246 | -89.25311 | 31960 ft | 436 kts | 283° |
| 2026-04-23 02:16 | 38.44367 | -89.32917 | 31956 ft | 435 kts | 283° |
| 2026-04-23 02:17 | 38.45293 | -89.39300 | 31950 ft | 437 kts | 283° |
| 2026-04-23 02:17 | 38.46370 | -89.46911 | 31941 ft | 437 kts | 283° |
| 2026-04-23 02:18 | 38.47425 | -89.54474 | 31930 ft | 437 kts | 282° |
| 2026-04-23 02:18 | 38.48481 | -89.62093 | 31927 ft | 437 kts | 282° |
| 2026-04-23 02:19 | 38.49532 | -89.69708 | 31925 ft | 436 kts | 282° |
| 2026-04-23 02:19 | 38.50578 | -89.77323 | 31926 ft | 436 kts | 282° |
| 2026-04-23 02:20 | 38.51618 | -89.84929 | 31925 ft | 435 kts | 282° |
| 2026-04-23 02:20 | 38.52654 | -89.92545 | 31928 ft | 435 kts | 282° |
| 2026-04-23 02:21 | 38.53681 | -90.00139 | 31927 ft | 435 kts | 282° |
| 2026-04-23 02:21 | 38.54700 | -90.07702 | 31926 ft | 434 kts | 282° |
| 2026-04-23 02:22 | 38.55717 | -90.15297 | 31926 ft | 433 kts | 282° |
| 2026-04-23 02:22 | 38.56718 | -90.22905 | 31927 ft | 432 kts | 281° |
| 2026-04-23 02:23 | 38.57695 | -90.30507 | 31926 ft | 432 kts | 281° |
| 2026-04-23 02:23 | 38.58683 | -90.38098 | 31939 ft | 433 kts | 281° |
| 2026-04-23 02:24 | 38.59675 | -90.45689 | 31935 ft | 433 kts | 281° |
| 2026-04-23 02:24 | 38.60664 | -90.53272 | 31929 ft | 433 kts | 281° |
| 2026-04-23 02:25 | 38.61649 | -90.60861 | 31928 ft | 431 kts | 281° |
| 2026-04-23 02:25 | 38.62621 | -90.68401 | 31927 ft | 433 kts | 281° |
| 2026-04-23 02:26 | 38.63596 | -90.76000 | 31925 ft | 432 kts | 281° |
| 2026-04-23 02:26 | 38.64564 | -90.83584 | 31933 ft | 431 kts | 280° |
| 2026-04-23 02:27 | 38.65527 | -90.91164 | 31935 ft | 431 kts | 280° |
| 2026-04-23 02:27 | 38.66486 | -90.98755 | 31937 ft | 431 kts | 280° |
| 2026-04-23 02:28 | 38.67439 | -91.06349 | 31935 ft | 433 kts | 280° |
| 2026-04-23 02:28 | 38.68387 | -91.13937 | 31934 ft | 432 kts | 280° |
| 2026-04-23 02:29 | 38.69331 | -91.21530 | 31926 ft | 431 kts | 280° |
| 2026-04-23 02:29 | 38.70245 | -91.29089 | 31922 ft | 431 kts | 279° |
| 2026-04-23 02:30 | 38.71150 | -91.36687 | 31918 ft | 430 kts | 279° |
| 2026-04-23 02:30 | 38.72069 | -91.44296 | 31912 ft | 430 kts | 279° |
| 2026-04-23 02:31 | 38.72990 | -91.51905 | 31913 ft | 430 kts | 279° |
| 2026-04-23 02:31 | 38.73906 | -91.59497 | 31912 ft | 430 kts | 279° |
| 2026-04-23 02:32 | 38.74812 | -91.67048 | 31915 ft | 430 kts | 279° |
| 2026-04-23 02:32 | 38.75718 | -91.74638 | 31915 ft | 431 kts | 279° |
| 2026-04-23 02:33 | 38.76619 | -91.82243 | 31914 ft | 431 kts | 278° |
| 2026-04-23 02:33 | 38.77516 | -91.89848 | 31919 ft | 430 kts | 278° |
| 2026-04-23 02:34 | 38.78408 | -91.97458 | 31922 ft | 430 kts | 278° |
| 2026-04-23 02:34 | 38.79294 | -92.05063 | 31926 ft | 431 kts | 278° |
| 2026-04-23 02:35 | 38.80177 | -92.12687 | 31927 ft | 431 kts | 278° |
| 2026-04-23 02:35 | 38.81053 | -92.20293 | 31927 ft | 431 kts | 278° |
| 2026-04-23 02:36 | 38.81926 | -92.27910 | 31928 ft | 431 kts | 278° |
| 2026-04-23 02:36 | 38.82769 | -92.35532 | 31926 ft | 431 kts | 277° |
| 2026-04-23 02:37 | 38.83600 | -92.43119 | 31919 ft | 431 kts | 277° |
| 2026-04-23 02:37 | 38.84448 | -92.50750 | 31913 ft | 431 kts | 277° |
| 2026-04-23 02:38 | 38.85297 | -92.58376 | 31920 ft | 431 kts | 277° |
| 2026-04-23 02:38 | 38.86144 | -92.66014 | 31917 ft | 432 kts | 277° |
| 2026-04-23 02:39 | 38.86984 | -92.73640 | 31918 ft | 432 kts | 277° |
| 2026-04-23 02:39 | 38.87812 | -92.81206 | 31917 ft | 431 kts | 277° |
| 2026-04-23 02:40 | 38.88640 | -92.88821 | 31912 ft | 430 kts | 277° |
| 2026-04-23 02:40 | 38.89464 | -92.96443 | 31907 ft | 430 kts | 277° |
| 2026-04-23 02:41 | 38.90282 | -93.04059 | 31902 ft | 429 kts | 276° |
| 2026-04-23 02:41 | 38.91095 | -93.11674 | 31901 ft | 429 kts | 276° |
| 2026-04-23 02:42 | 38.91902 | -93.19285 | 31902 ft | 430 kts | 276° |
| 2026-04-23 02:42 | 38.92699 | -93.26839 | 31905 ft | 430 kts | 276° |
| 2026-04-23 02:43 | 38.93494 | -93.34444 | 31900 ft | 430 kts | 276° |
| 2026-04-23 02:43 | 38.94255 | -93.42061 | 31897 ft | 429 kts | 276° |
| 2026-04-23 02:44 | 38.95010 | -93.49669 | 31894 ft | 428 kts | 276° |
| 2026-04-23 02:44 | 38.95774 | -93.57265 | 31889 ft | 428 kts | 276° |
| 2026-04-23 02:45 | 38.96535 | -93.64811 | 31883 ft | 428 kts | 275° |
| 2026-04-23 02:45 | 38.97297 | -93.72410 | 31883 ft | 429 kts | 275° |
| 2026-04-23 02:46 | 38.98055 | -93.80026 | 31886 ft | 429 kts | 275° |
| 2026-04-23 02:46 | 38.98806 | -93.87619 | 31881 ft | 428 kts | 275° |
| 2026-04-23 02:47 | 38.99552 | -93.95215 | 31876 ft | 427 kts | 275° |
| 2026-04-23 02:47 | 39.00044 | -94.02772 | 31875 ft | 425 kts | 269° |
| 2026-04-23 02:48 | 39.00020 | -94.10388 | 31868 ft | 424 kts | 267° |
| 2026-04-23 02:48 | 38.99916 | -94.17986 | 31870 ft | 424 kts | 267° |
| 2026-04-23 02:49 | 38.99840 | -94.25585 | 31870 ft | 425 kts | 267° |
| 2026-04-23 02:49 | 38.99780 | -94.33188 | 31873 ft | 425 kts | 267° |
| 2026-04-23 02:50 | 38.99721 | -94.40744 | 31873 ft | 424 kts | 267° |
| 2026-04-23 02:50 | 38.99657 | -94.48338 | 31872 ft | 424 kts | 267° |
| 2026-04-23 02:51 | 38.99587 | -94.55929 | 31854 ft | 423 kts | 267° |
| 2026-04-23 02:51 | 38.99513 | -94.63505 | 31853 ft | 423 kts | 267° |
| 2026-04-23 02:52 | 38.99433 | -94.71080 | 31856 ft | 423 kts | 266° |
| 2026-04-23 02:52 | 38.99349 | -94.78656 | 31854 ft | 423 kts | 266° |
| 2026-04-23 02:53 | 38.99260 | -94.86234 | 31853 ft | 423 kts | 266° |
| 2026-04-23 02:53 | 38.99166 | -94.93769 | 31853 ft | 423 kts | 266° |
| 2026-04-23 02:54 | 38.99068 | -95.01314 | 31840 ft | 424 kts | 266° |
| 2026-04-23 02:54 | 38.98953 | -95.08882 | 31843 ft | 424 kts | 266° |
| 2026-04-23 02:55 | 38.98814 | -95.16448 | 31848 ft | 425 kts | 266° |
| 2026-04-23 02:55 | 38.98687 | -95.24031 | 31840 ft | 425 kts | 266° |
| 2026-04-23 02:56 | 38.98565 | -95.31612 | 31848 ft | 424 kts | 266° |
| 2026-04-23 02:56 | 38.98442 | -95.39179 | 31837 ft | 424 kts | 266° |
| 2026-04-23 02:57 | 38.98315 | -95.46704 | 31821 ft | 423 kts | 266° |
| 2026-04-23 02:57 | 38.98181 | -95.54279 | 31833 ft | 423 kts | 266° |
| 2026-04-23 02:58 | 38.98067 | -95.60576 | 31835 ft | 425 kts | 266° |
| 2026-04-23 02:58 | 38.97924 | -95.68161 | 31835 ft | 425 kts | 266° |
| 2026-04-23 02:59 | 38.97776 | -95.75752 | 31837 ft | 424 kts | 266° |
| 2026-04-23 02:59 | 38.97625 | -95.83274 | 31827 ft | 424 kts | 266° |
| 2026-04-23 03:00 | 38.97468 | -95.90840 | 31816 ft | 423 kts | 266° |
| 2026-04-23 03:00 | 38.97307 | -95.98405 | 31800 ft | 422 kts | 266° |
| 2026-04-23 03:01 | 38.97140 | -96.05969 | 31781 ft | 422 kts | 266° |
| 2026-04-23 03:01 | 38.96965 | -96.13525 | 31766 ft | 421 kts | 266° |
| 2026-04-23 03:02 | 38.96761 | -96.21030 | 31762 ft | 421 kts | 266° |
| 2026-04-23 03:02 | 38.96562 | -96.28573 | 31756 ft | 422 kts | 266° |
| 2026-04-23 03:03 | 38.96372 | -96.36114 | 31762 ft | 422 kts | 266° |
| 2026-04-23 03:03 | 38.96182 | -96.43651 | 31763 ft | 423 kts | 266° |
| 2026-04-23 03:04 | 38.95987 | -96.51186 | 31763 ft | 423 kts | 266° |
| 2026-04-23 03:04 | 38.95789 | -96.58680 | 31772 ft | 422 kts | 267° |
| 2026-04-23 03:05 | 38.95585 | -96.66203 | 31773 ft | 422 kts | 267° |
| 2026-04-23 03:05 | 38.95376 | -96.73725 | 31782 ft | 422 kts | 267° |
| 2026-04-23 03:06 | 38.95162 | -96.81244 | 31776 ft | 421 kts | 267° |
| 2026-04-23 03:06 | 38.94943 | -96.88772 | 31772 ft | 421 kts | 267° |
| 2026-04-23 03:07 | 38.94719 | -96.96283 | 31760 ft | 421 kts | 266° |
| 2026-04-23 03:07 | 38.94491 | -97.03788 | 31736 ft | 420 kts | 266° |
| 2026-04-23 03:08 | 38.94259 | -97.11289 | 31730 ft | 420 kts | 266° |
| 2026-04-23 03:08 | 38.94021 | -97.18791 | 31719 ft | 420 kts | 266° |
| 2026-04-23 03:09 | 38.93753 | -97.26285 | 31721 ft | 419 kts | 266° |
| 2026-04-23 03:09 | 38.93489 | -97.33726 | 31728 ft | 419 kts | 266° |
| 2026-04-23 03:10 | 38.93235 | -97.41212 | 31725 ft | 418 kts | 266° |
| 2026-04-23 03:10 | 38.92982 | -97.48681 | 31734 ft | 418 kts | 266° |
| 2026-04-23 03:11 | 38.92725 | -97.56151 | 31735 ft | 417 kts | 266° |
| 2026-04-23 03:11 | 38.92286 | -97.63598 | 31736 ft | 416 kts | 261° |
| 2026-04-23 03:12 | 38.91208 | -97.70905 | 31734 ft | 416 kts | 257° |
| 2026-04-23 03:12 | 38.89988 | -97.78169 | 31737 ft | 416 kts | 257° |
| 2026-04-23 03:13 | 38.88792 | -97.85424 | 31732 ft | 416 kts | 257° |
| 2026-04-23 03:13 | 38.87623 | -97.92652 | 31799 ft | 414 kts | 257° |
| 2026-04-23 03:14 | 38.86454 | -97.99899 | 31795 ft | 414 kts | 257° |
| 2026-04-23 03:14 | 38.85283 | -98.07136 | 31780 ft | 413 kts | 257° |
| 2026-04-23 03:15 | 38.84105 | -98.14377 | 31772 ft | 414 kts | 258° |
| 2026-04-23 03:15 | 38.82923 | -98.21613 | 31763 ft | 415 kts | 258° |
| 2026-04-23 03:16 | 38.81739 | -98.28838 | 31762 ft | 415 kts | 258° |
| 2026-04-23 03:16 | 38.79955 | -98.39664 | 31756 ft | 413 kts | 258° |
| 2026-04-23 03:17 | 38.78760 | -98.46877 | 31753 ft | 412 kts | 258° |
| 2026-04-23 03:17 | 38.77559 | -98.54096 | 31752 ft | 412 kts | 258° |
| 2026-04-23 03:18 | 38.76356 | -98.61305 | 31752 ft | 413 kts | 258° |
| 2026-04-23 03:18 | 38.75146 | -98.68454 | 31754 ft | 413 kts | 258° |
| 2026-04-23 03:19 | 38.73909 | -98.75636 | 31755 ft | 412 kts | 258° |
| 2026-04-23 03:19 | 38.72681 | -98.82822 | 31754 ft | 411 kts | 258° |
| 2026-04-23 03:20 | 38.71462 | -98.89996 | 31751 ft | 411 kts | 258° |
| 2026-04-23 03:20 | 38.70243 | -98.97156 | 31746 ft | 412 kts | 258° |
| 2026-04-23 03:21 | 38.69018 | -99.04323 | 31748 ft | 412 kts | 259° |
| 2026-04-23 03:21 | 38.67789 | -99.11489 | 31753 ft | 413 kts | 259° |
| 2026-04-23 03:22 | 38.66556 | -99.18644 | 31753 ft | 412 kts | 259° |
| 2026-04-23 03:22 | 38.65320 | -99.25791 | 31752 ft | 411 kts | 259° |
| 2026-04-23 03:23 | 38.64089 | -99.32881 | 31746 ft | 410 kts | 259° |
| 2026-04-23 03:23 | 38.62846 | -99.40016 | 31739 ft | 410 kts | 258° |
| 2026-04-23 03:24 | 38.61597 | -99.47158 | 31729 ft | 410 kts | 258° |
| 2026-04-23 03:24 | 38.60344 | -99.54292 | 31717 ft | 411 kts | 258° |
| 2026-04-23 03:25 | 38.59095 | -99.61373 | 31703 ft | 410 kts | 258° |
| 2026-04-23 03:25 | 38.57836 | -99.68487 | 31697 ft | 409 kts | 258° |
| 2026-04-23 03:26 | 38.56551 | -99.75582 | 31690 ft | 408 kts | 258° |
| 2026-04-23 03:26 | 38.55265 | -99.82673 | 31687 ft | 409 kts | 258° |
| 2026-04-23 03:27 | 38.53991 | -99.89754 | 31680 ft | 409 kts | 258° |
| 2026-04-23 03:27 | 38.52720 | -99.96822 | 31676 ft | 409 kts | 258° |
| 2026-04-23 03:28 | 38.51455 | -100.03842 | 31669 ft | 407 kts | 258° |
| 2026-04-23 03:28 | 38.50178 | -100.10904 | 31664 ft | 406 kts | 257° |
| 2026-04-23 03:29 | 38.48900 | -100.17942 | 31661 ft | 407 kts | 257° |
| 2026-04-23 03:29 | 38.47616 | -100.24985 | 31659 ft | 407 kts | 257° |
| 2026-04-23 03:30 | 38.46332 | -100.32010 | 31653 ft | 406 kts | 257° |
| 2026-04-23 03:30 | 38.45042 | -100.39035 | 31649 ft | 405 kts | 257° |
| 2026-04-23 03:31 | 38.43760 | -100.45993 | 31646 ft | 404 kts | 257° |
| 2026-04-23 03:31 | 38.42466 | -100.52990 | 31655 ft | 405 kts | 257° |
| 2026-04-23 03:32 | 38.41168 | -100.59988 | 31667 ft | 406 kts | 257° |
| 2026-04-23 03:32 | 38.39866 | -100.66981 | 31679 ft | 405 kts | 257° |
| 2026-04-23 03:33 | 38.38555 | -100.73972 | 31691 ft | 404 kts | 256° |
| 2026-04-23 03:33 | 38.37224 | -100.80915 | 31700 ft | 405 kts | 256° |
| 2026-04-23 03:34 | 38.35891 | -100.87911 | 31699 ft | 406 kts | 256° |
| 2026-04-23 03:34 | 38.34569 | -100.94887 | 31692 ft | 406 kts | 256° |
| 2026-04-23 03:35 | 38.33246 | -101.01867 | 31677 ft | 405 kts | 256° |
| 2026-04-23 03:35 | 38.31919 | -101.08850 | 31652 ft | 404 kts | 256° |
| 2026-04-23 03:36 | 38.30816 | -101.14636 | 31633 ft | 403 kts | 256° |
| 2026-04-23 03:36 | 38.29485 | -101.21590 | 31606 ft | 402 kts | 256° |
| 2026-04-23 03:37 | 38.28155 | -101.28516 | 31582 ft | 402 kts | 256° |
| 2026-04-23 03:37 | 38.26828 | -101.35407 | 31579 ft | 401 kts | 256° |
| 2026-04-23 03:38 | 38.25504 | -101.42253 | 31572 ft | 400 kts | 256° |
| 2026-04-23 03:38 | 38.24174 | -101.49115 | 31578 ft | 398 kts | 256° |
| 2026-04-23 03:39 | 38.22843 | -101.55952 | 31575 ft | 397 kts | 256° |
| 2026-04-23 03:39 | 38.21511 | -101.62775 | 31572 ft | 398 kts | 256° |
| 2026-04-23 03:40 | 38.20176 | -101.69590 | 31572 ft | 397 kts | 256° |
| 2026-04-23 03:40 | 38.18835 | -101.76396 | 31567 ft | 395 kts | 255° |
| 2026-04-23 03:41 | 38.17473 | -101.83163 | 31565 ft | 394 kts | 255° |
| 2026-04-23 03:41 | 38.16128 | -101.89876 | 31565 ft | 394 kts | 255° |
| 2026-04-23 03:42 | 38.14783 | -101.96627 | 31561 ft | 395 kts | 255° |
| 2026-04-23 03:42 | 38.13440 | -102.03372 | 31561 ft | 394 kts | 255° |
| 2026-04-23 03:43 | 38.12095 | -102.10107 | 31559 ft | 392 kts | 255° |
| 2026-04-23 03:43 | 38.10750 | -102.16819 | 31557 ft | 392 kts | 255° |
| 2026-04-23 03:44 | 38.09404 | -102.23518 | 31560 ft | 391 kts | 255° |
| 2026-04-23 03:44 | 38.08054 | -102.30217 | 31582 ft | 390 kts | 255° |
| 2026-04-23 03:45 | 38.06701 | -102.36904 | 31602 ft | 391 kts | 255° |
| 2026-04-23 03:45 | 38.05345 | -102.43588 | 31629 ft | 392 kts | 255° |
| 2026-04-23 03:46 | 38.03994 | -102.50226 | 31655 ft | 390 kts | 255° |
| 2026-04-23 03:46 | 38.02633 | -102.56892 | 31668 ft | 389 kts | 255° |
| 2026-04-23 03:47 | 38.01269 | -102.63550 | 31674 ft | 389 kts | 255° |
| 2026-04-23 03:47 | 37.99901 | -102.70207 | 31675 ft | 391 kts | 254° |
| 2026-04-23 03:48 | 37.98529 | -102.76861 | 31672 ft | 390 kts | 254° |
| 2026-04-23 03:48 | 37.97135 | -102.83490 | 31642 ft | 389 kts | 254° |
| 2026-04-23 03:49 | 37.95739 | -102.90123 | 31627 ft | 388 kts | 254° |
| 2026-04-23 03:49 | 37.94364 | -102.96700 | 31611 ft | 389 kts | 254° |
| 2026-04-23 03:50 | 37.92985 | -103.03309 | 31585 ft | 389 kts | 254° |
| 2026-04-23 03:50 | 37.91601 | -103.09922 | 31555 ft | 388 kts | 254° |
| 2026-04-23 03:51 | 37.90215 | -103.16528 | 31579 ft | 387 kts | 254° |
| 2026-04-23 03:51 | 37.88827 | -103.23125 | 31605 ft | 387 kts | 253° |
| 2026-04-23 03:52 | 37.87435 | -103.29718 | 31619 ft | 388 kts | 253° |
| 2026-04-23 03:52 | 37.86040 | -103.36306 | 31631 ft | 387 kts | 253° |
| 2026-04-23 03:53 | 37.84642 | -103.42890 | 31639 ft | 386 kts | 253° |
| 2026-04-23 03:53 | 37.83240 | -103.49469 | 31638 ft | 387 kts | 253° |
| 2026-04-23 03:54 | 37.81833 | -103.56059 | 31625 ft | 388 kts | 253° |
| 2026-04-23 03:54 | 37.80427 | -103.62615 | 31611 ft | 387 kts | 253° |
| 2026-04-23 03:55 | 37.79013 | -103.69194 | 31594 ft | 387 kts | 253° |
| 2026-04-23 03:55 | 37.77596 | -103.75771 | 31571 ft | 388 kts | 253° |
| 2026-04-23 03:56 | 37.76160 | -103.82359 | 31561 ft | 388 kts | 253° |
| 2026-04-23 03:56 | 37.74712 | -103.88918 | 31563 ft | 387 kts | 253° |
| 2026-04-23 03:57 | 37.73272 | -103.95491 | 31565 ft | 388 kts | 253° |
| 2026-04-23 03:57 | 37.71835 | -104.02070 | 31571 ft | 389 kts | 253° |
| 2026-04-23 03:58 | 37.70403 | -104.08618 | 31576 ft | 389 kts | 253° |
| 2026-04-23 03:58 | 37.68961 | -104.15198 | 31573 ft | 388 kts | 253° |
| 2026-04-23 03:59 | 37.67516 | -104.21766 | 31578 ft | 388 kts | 253° |
| 2026-04-23 03:59 | 37.66062 | -104.28361 | 31586 ft | 390 kts | 253° |
| 2026-04-23 04:00 | 37.64604 | -104.34957 | 31589 ft | 390 kts | 252° |
| 2026-04-23 04:00 | 37.63152 | -104.41503 | 31592 ft | 389 kts | 252° |
| 2026-04-23 04:01 | 37.61690 | -104.48072 | 31602 ft | 388 kts | 252° |
| 2026-04-23 04:01 | 37.60226 | -104.54638 | 31613 ft | 389 kts | 252° |
| 2026-04-23 04:02 | 37.58754 | -104.61216 | 31626 ft | 391 kts | 252° |
| 2026-04-23 04:02 | 37.57276 | -104.67804 | 31627 ft | 391 kts | 252° |
| 2026-04-23 04:03 | 37.55788 | -104.74418 | 31644 ft | 392 kts | 252° |
| 2026-04-23 04:03 | 37.54289 | -104.81046 | 31651 ft | 393 kts | 252° |
| 2026-04-23 04:04 | 37.52760 | -104.87689 | 31669 ft | 396 kts | 252° |
| 2026-04-23 04:04 | 37.51238 | -104.94326 | 31684 ft | 397 kts | 252° |
| 2026-04-23 04:05 | 37.49716 | -105.00997 | 31708 ft | 395 kts | 252° |
| 2026-04-23 04:05 | 37.48196 | -105.07661 | 31709 ft | 393 kts | 252° |
| 2026-04-23 04:06 | 37.46685 | -105.14271 | 31724 ft | 392 kts | 252° |
| 2026-04-23 04:06 | 37.45174 | -105.20856 | 31745 ft | 391 kts | 252° |
| 2026-04-23 04:07 | 37.43673 | -105.27385 | 31755 ft | 388 kts | 252° |
| 2026-04-23 04:07 | 37.42171 | -105.33898 | 31760 ft | 386 kts | 252° |
| 2026-04-23 04:08 | 37.40671 | -105.40385 | 31771 ft | 387 kts | 252° |
| 2026-04-23 04:08 | 37.39169 | -105.46861 | 31808 ft | 385 kts | 252° |
| 2026-04-23 04:09 | 37.37664 | -105.53332 | 31854 ft | 384 kts | 252° |
| 2026-04-23 04:09 | 37.36168 | -105.59750 | 31882 ft | 385 kts | 252° |
| 2026-04-23 04:10 | 37.34659 | -105.66202 | 31920 ft | 384 kts | 252° |
| 2026-04-23 04:10 | 37.33151 | -105.72638 | 31939 ft | 383 kts | 252° |
| 2026-04-23 04:11 | 37.31636 | -105.79079 | 31952 ft | 384 kts | 252° |
| 2026-04-23 04:11 | 37.30098 | -105.85531 | 31955 ft | 387 kts | 252° |
| 2026-04-23 04:12 | 37.28546 | -105.92008 | 31947 ft | 388 kts | 252° |
| 2026-04-23 04:12 | 37.26997 | -105.98519 | 31914 ft | 390 kts | 252° |
| 2026-04-23 04:13 | 37.25449 | -106.05035 | 31892 ft | 389 kts | 252° |
| 2026-04-23 04:13 | 37.24155 | -106.10477 | 31861 ft | 391 kts | 252° |
| 2026-04-23 04:14 | 37.22341 | -106.18082 | 31844 ft | 390 kts | 252° |
| 2026-04-23 04:14 | 37.20784 | -106.24592 | 31824 ft | 389 kts | 252° |
| 2026-04-23 04:15 | 37.19482 | -106.30024 | 31830 ft | 388 kts | 252° |
| 2026-04-23 04:16 | 37.17165 | -106.39657 | 31855 ft | 385 kts | 252° |
| 2026-04-23 04:16 | 37.15618 | -106.46068 | 31860 ft | 383 kts | 252° |
| 2026-04-23 04:17 | 37.14075 | -106.52441 | 31861 ft | 380 kts | 252° |
| 2026-04-23 04:17 | 37.12538 | -106.58777 | 31867 ft | 378 kts | 252° |
| 2026-04-23 04:18 | 37.11003 | -106.65088 | 31863 ft | 378 kts | 252° |
| 2026-04-23 04:18 | 37.09466 | -106.71392 | 31880 ft | 378 kts | 252° |
| 2026-04-23 04:19 | 37.07932 | -106.77666 | 31899 ft | 377 kts | 252° |
| 2026-04-23 04:19 | 37.06387 | -106.83923 | 31914 ft | 375 kts | 252° |
| 2026-04-23 04:20 | 37.04835 | -106.90156 | 31917 ft | 374 kts | 252° |
| 2026-04-23 04:20 | 37.03292 | -106.96389 | 31916 ft | 374 kts | 252° |
| 2026-04-23 04:21 | 37.01759 | -107.02599 | 31905 ft | 376 kts | 252° |
| 2026-04-23 04:21 | 37.00217 | -107.08848 | 31890 ft | 377 kts | 252° |
| 2026-04-23 04:22 | 36.98672 | -107.15092 | 31865 ft | 377 kts | 252° |
| 2026-04-23 04:22 | 36.97121 | -107.21346 | 31834 ft | 376 kts | 252° |
| 2026-04-23 04:23 | 36.95562 | -107.27612 | 31825 ft | 376 kts | 252° |
| 2026-04-23 04:23 | 36.93998 | -107.33885 | 31805 ft | 376 kts | 252° |
| 2026-04-23 04:24 | 36.92436 | -107.40135 | 31809 ft | 377 kts | 252° |
| 2026-04-23 04:24 | 36.90878 | -107.46350 | 31827 ft | 377 kts | 252° |
| 2026-04-23 04:25 | 36.89308 | -107.52600 | 31843 ft | 378 kts | 252° |
| 2026-04-23 04:25 | 36.87732 | -107.58860 | 31846 ft | 377 kts | 252° |
| 2026-04-23 04:26 | 36.86154 | -107.65108 | 31852 ft | 378 kts | 252° |
| 2026-04-23 04:26 | 36.84572 | -107.71359 | 31849 ft | 376 kts | 252° |
| 2026-04-23 04:27 | 36.82990 | -107.77592 | 31836 ft | 376 kts | 252° |
| 2026-04-23 04:27 | 36.81398 | -107.83835 | 31835 ft | 376 kts | 252° |
| 2026-04-23 04:28 | 36.79026 | -107.93187 | 31886 ft | 376 kts | 252° |
| 2026-04-23 04:28 | 36.77454 | -107.99427 | 31909 ft | 376 kts | 252° |
| 2026-04-23 04:29 | 36.75895 | -108.05620 | 31942 ft | 375 kts | 252° |
| 2026-04-23 04:29 | 36.74554 | -108.11939 | 31963 ft | 376 kts | 258° |
| 2026-04-23 04:30 | 36.73706 | -108.18388 | 31970 ft | 376 kts | 261° |
| 2026-04-23 04:30 | 36.72943 | -108.24812 | 31965 ft | 376 kts | 260° |
| 2026-04-23 04:31 | 36.72160 | -108.31276 | 31970 ft | 376 kts | 260° |
| 2026-04-23 04:31 | 36.71363 | -108.37724 | 31946 ft | 375 kts | 260° |
| 2026-04-23 04:32 | 36.70557 | -108.44175 | 31923 ft | 375 kts | 260° |
| 2026-04-23 04:32 | 36.69749 | -108.50610 | 31879 ft | 375 kts | 260° |
| 2026-04-23 04:33 | 36.68934 | -108.57067 | 31842 ft | 375 kts | 260° |
| 2026-04-23 04:33 | 36.68118 | -108.63501 | 31803 ft | 375 kts | 259° |
| 2026-04-23 04:34 | 36.67298 | -108.69939 | 31781 ft | 376 kts | 259° |
| 2026-04-23 04:34 | 36.66475 | -108.76376 | 31772 ft | 376 kts | 259° |
| 2026-04-23 04:35 | 36.65647 | -108.82815 | 31778 ft | 376 kts | 259° |
| 2026-04-23 04:35 | 36.64824 | -108.89195 | 31773 ft | 375 kts | 259° |
| 2026-04-23 04:36 | 36.63990 | -108.95628 | 31785 ft | 375 kts | 259° |
| 2026-04-23 04:36 | 36.63155 | -109.02040 | 31784 ft | 374 kts | 259° |
| 2026-04-23 04:37 | 36.62319 | -109.08440 | 31787 ft | 374 kts | 259° |
| 2026-04-23 04:37 | 36.61466 | -109.14836 | 31789 ft | 373 kts | 259° |
| 2026-04-23 04:38 | 36.60610 | -109.21213 | 31795 ft | 373 kts | 259° |
| 2026-04-23 04:38 | 36.59763 | -109.27593 | 31782 ft | 373 kts | 259° |
| 2026-04-23 04:39 | 36.58918 | -109.33976 | 31794 ft | 372 kts | 259° |
| 2026-04-23 04:39 | 36.58076 | -109.40338 | 31790 ft | 372 kts | 259° |
| 2026-04-23 04:40 | 36.57231 | -109.46696 | 31793 ft | 373 kts | 259° |
| 2026-04-23 04:40 | 36.56389 | -109.53009 | 31788 ft | 372 kts | 259° |
| 2026-04-23 04:41 | 36.55967 | -109.56161 | 31466 ft | 366 kts | 259° |
| 2026-04-23 04:41 | 36.55546 | -109.59303 | 31102 ft | 370 kts | 259° |
| 2026-04-23 04:41 | 36.55119 | -109.62475 | 30856 ft | 372 kts | 258° |
| 2026-04-23 04:41 | 36.54687 | -109.65670 | 30803 ft | 374 kts | 258° |
| 2026-04-23 04:42 | 36.53823 | -109.72064 | 30793 ft | 375 kts | 258° |
| 2026-04-23 04:42 | 36.52957 | -109.78449 | 30790 ft | 375 kts | 258° |
| 2026-04-23 04:43 | 36.52086 | -109.84843 | 30794 ft | 374 kts | 258° |
| 2026-04-23 04:43 | 36.51218 | -109.91186 | 30794 ft | 374 kts | 258° |
| 2026-04-23 04:44 | 36.50334 | -109.97606 | 30810 ft | 375 kts | 258° |
| 2026-04-23 04:44 | 36.49094 | -110.03868 | 30802 ft | 373 kts | 252° |
| 2026-04-23 04:45 | 36.47588 | -110.10033 | 30813 ft | 372 kts | 252° |
| 2026-04-23 04:45 | 36.46081 | -110.16133 | 30805 ft | 371 kts | 252° |
| 2026-04-23 04:46 | 36.44577 | -110.22279 | 30823 ft | 371 kts | 252° |
| 2026-04-23 04:46 | 36.43080 | -110.28424 | 30813 ft | 371 kts | 252° |
| 2026-04-23 04:47 | 36.41583 | -110.34562 | 30823 ft | 371 kts | 252° |
| 2026-04-23 04:47 | 36.40086 | -110.40688 | 30818 ft | 370 kts | 252° |
| 2026-04-23 04:48 | 36.38599 | -110.46757 | 30828 ft | 369 kts | 251° |
| 2026-04-23 04:48 | 36.37103 | -110.52852 | 30818 ft | 369 kts | 251° |
| 2026-04-23 04:49 | 36.35603 | -110.58943 | 30823 ft | 367 kts | 251° |
| 2026-04-23 04:49 | 36.34119 | -110.64958 | 30822 ft | 366 kts | 251° |
| 2026-04-23 04:50 | 36.32623 | -110.71003 | 30832 ft | 366 kts | 251° |
| 2026-04-23 04:50 | 36.31130 | -110.77023 | 30827 ft | 365 kts | 251° |
| 2026-04-23 04:51 | 36.29634 | -110.83040 | 30831 ft | 365 kts | 251° |
| 2026-04-23 04:51 | 36.28136 | -110.89053 | 30838 ft | 365 kts | 251° |
| 2026-04-23 04:52 | 36.26891 | -110.94040 | 30837 ft | 365 kts | 251° |
| 2026-04-23 04:52 | 36.25384 | -111.00027 | 30835 ft | 363 kts | 250° |
| 2026-04-23 04:53 | 36.23864 | -111.06007 | 30837 ft | 363 kts | 250° |
| 2026-04-23 04:53 | 36.22367 | -111.11940 | 30829 ft | 363 kts | 250° |
| 2026-04-23 04:54 | 36.20863 | -111.17916 | 30836 ft | 362 kts | 250° |
| 2026-04-23 04:54 | 36.19362 | -111.23877 | 30830 ft | 363 kts | 250° |
| 2026-04-23 04:55 | 36.17855 | -111.29851 | 30835 ft | 363 kts | 250° |
| 2026-04-23 04:55 | 36.16349 | -111.35809 | 30833 ft | 363 kts | 250° |
| 2026-04-23 04:56 | 36.14836 | -111.41778 | 30836 ft | 363 kts | 250° |
| 2026-04-23 04:56 | 36.13318 | -111.47756 | 30833 ft | 363 kts | 250° |
| 2026-04-23 04:57 | 36.11797 | -111.53728 | 30838 ft | 364 kts | 250° |
| 2026-04-23 04:57 | 36.10270 | -111.59709 | 30699 ft | 372 kts | 250° |
| 2026-04-23 04:58 | 36.09483 | -111.62779 | 30582 ft | 377 kts | 250° |
| 2026-04-23 04:58 | 36.08682 | -111.65903 | 30461 ft | 383 kts | 250° |
| 2026-04-23 04:58 | 36.07873 | -111.69059 | 30356 ft | 387 kts | 250° |
| 2026-04-23 04:58 | 36.07055 | -111.72245 | 30241 ft | 391 kts | 250° |
| 2026-04-23 04:59 | 36.05403 | -111.78678 | 29988 ft | 383 kts | 250° |
| 2026-04-23 04:59 | 36.03827 | -111.84820 | 29981 ft | 375 kts | 249° |
| 2026-04-23 05:00 | 36.02250 | -111.90917 | 30029 ft | 373 kts | 249° |
| 2026-04-23 05:00 | 36.00692 | -111.97013 | 30096 ft | 370 kts | 250° |
| 2026-04-23 05:01 | 35.99215 | -112.03114 | 30088 ft | 369 kts | 250° |
| 2026-04-23 05:01 | 35.97753 | -112.09149 | 30113 ft | 368 kts | 250° |
| 2026-04-23 05:02 | 35.96283 | -112.15213 | 30104 ft | 368 kts | 250° |
| 2026-04-23 05:02 | 35.94816 | -112.21260 | 30098 ft | 367 kts | 250° |
| 2026-04-23 05:03 | 35.93348 | -112.27294 | 30084 ft | 366 kts | 250° |
| 2026-04-23 05:03 | 35.91880 | -112.33321 | 30064 ft | 366 kts | 250° |
| 2026-04-23 05:04 | 35.90410 | -112.39337 | 30028 ft | 366 kts | 251° |
| 2026-04-23 05:04 | 35.88948 | -112.45305 | 30007 ft | 365 kts | 251° |
| 2026-04-23 05:05 | 35.87477 | -112.51296 | 29973 ft | 365 kts | 251° |
| 2026-04-23 05:05 | 35.86004 | -112.57283 | 29948 ft | 364 kts | 251° |
| 2026-04-23 05:06 | 35.84528 | -112.63266 | 29939 ft | 364 kts | 251° |
| 2026-04-23 05:06 | 35.83053 | -112.69229 | 29943 ft | 364 kts | 251° |
| 2026-04-23 05:07 | 35.81576 | -112.75190 | 29937 ft | 363 kts | 251° |
| 2026-04-23 05:07 | 35.80095 | -112.81149 | 29938 ft | 363 kts | 251° |
| 2026-04-23 05:08 | 35.78615 | -112.87095 | 29933 ft | 363 kts | 251° |
| 2026-04-23 05:08 | 35.77131 | -112.93042 | 29933 ft | 362 kts | 251° |
| 2026-04-23 05:09 | 35.75645 | -112.98952 | 29927 ft | 361 kts | 250° |
| 2026-04-23 05:09 | 35.74152 | -113.04829 | 29927 ft | 361 kts | 251° |
| 2026-04-23 05:10 | 35.72663 | -113.10728 | 29917 ft | 360 kts | 251° |
| 2026-04-23 05:10 | 35.71184 | -113.16607 | 29916 ft | 359 kts | 251° |
| 2026-04-23 05:11 | 35.69705 | -113.22482 | 29911 ft | 359 kts | 251° |
| 2026-04-23 05:11 | 35.68231 | -113.28330 | 29877 ft | 357 kts | 251° |
| 2026-04-23 05:12 | 35.66759 | -113.34161 | 29903 ft | 359 kts | 251° |
| 2026-04-23 05:12 | 35.65286 | -113.39973 | 29896 ft | 358 kts | 251° |
| 2026-04-23 05:13 | 35.63801 | -113.45820 | 29887 ft | 358 kts | 251° |
| 2026-04-23 05:14 | 35.61576 | -113.54563 | 29889 ft | 358 kts | 251° |
| 2026-04-23 05:14 | 35.60088 | -113.60394 | 29880 ft | 357 kts | 251° |
| 2026-04-23 05:15 | 35.58600 | -113.66210 | 29872 ft | 356 kts | 251° |
| 2026-04-23 05:15 | 35.57117 | -113.71996 | 29877 ft | 357 kts | 251° |
| 2026-04-23 05:16 | 35.55622 | -113.77810 | 29893 ft | 357 kts | 251° |
| 2026-04-23 05:16 | 35.54122 | -113.83637 | 29903 ft | 356 kts | 251° |
| 2026-04-23 05:17 | 35.52624 | -113.89439 | 29919 ft | 356 kts | 251° |
| 2026-04-23 05:17 | 35.51132 | -113.95245 | 29924 ft | 356 kts | 252° |
| 2026-04-23 05:18 | 35.49438 | -114.00894 | 29931 ft | 356 kts | 243° |
| 2026-04-23 05:18 | 35.46928 | -114.06127 | 29937 ft | 356 kts | 239° |
| 2026-04-23 05:19 | 35.44263 | -114.11258 | 29939 ft | 356 kts | 239° |
| 2026-04-23 05:19 | 35.41609 | -114.16385 | 29935 ft | 356 kts | 239° |
| 2026-04-23 05:20 | 35.38966 | -114.21525 | 29933 ft | 355 kts | 239° |
| 2026-04-23 05:20 | 35.36336 | -114.26651 | 29919 ft | 355 kts | 239° |
| 2026-04-23 05:21 | 35.33724 | -114.31741 | 29898 ft | 355 kts | 239° |
| 2026-04-23 05:21 | 35.31092 | -114.36861 | 29907 ft | 355 kts | 239° |
| 2026-04-23 05:22 | 35.28464 | -114.41969 | 29920 ft | 354 kts | 240° |
| 2026-04-23 05:22 | 35.25834 | -114.47071 | 29932 ft | 354 kts | 240° |
| 2026-04-23 05:23 | 35.23205 | -114.52166 | 29930 ft | 353 kts | 240° |
| 2026-04-23 05:23 | 35.20580 | -114.57245 | 29936 ft | 353 kts | 240° |
| 2026-04-23 05:24 | 35.17966 | -114.62294 | 29935 ft | 353 kts | 240° |
| 2026-04-23 05:24 | 35.15337 | -114.67365 | 29936 ft | 353 kts | 240° |
| 2026-04-23 05:25 | 35.12706 | -114.72432 | 29928 ft | 353 kts | 240° |
| 2026-04-23 05:25 | 35.10076 | -114.77492 | 29932 ft | 353 kts | 240° |
| 2026-04-23 05:26 | 35.07443 | -114.82550 | 29928 ft | 353 kts | 240° |
| 2026-04-23 05:26 | 35.04847 | -114.87643 | 29929 ft | 353 kts | 242° |
| 2026-04-23 05:27 | 35.02445 | -114.92849 | 29942 ft | 351 kts | 244° |
| 2026-04-23 05:27 | 35.00149 | -114.98137 | 29943 ft | 353 kts | 244° |
| 2026-04-23 05:28 | 34.97868 | -115.03418 | 29949 ft | 351 kts | 246° |
| 2026-04-23 05:28 | 34.95594 | -115.08672 | 29955 ft | 350 kts | 246° |
| 2026-04-23 05:29 | 34.93321 | -115.13918 | 29958 ft | 350 kts | 246° |
| 2026-04-23 05:29 | 34.91039 | -115.19173 | 29961 ft | 351 kts | 246° |
| 2026-04-23 05:30 | 34.88759 | -115.24410 | 29967 ft | 351 kts | 246° |
| 2026-04-23 05:30 | 34.86468 | -115.29666 | 29967 ft | 352 kts | 246° |
| 2026-04-23 05:31 | 34.84170 | -115.34927 | 29974 ft | 352 kts | 246° |
| 2026-04-23 05:31 | 34.82259 | -115.39298 | 29971 ft | 352 kts | 246° |
| 2026-04-23 05:32 | 34.79959 | -115.44566 | 29974 ft | 353 kts | 246° |
| 2026-04-23 05:32 | 34.77845 | -115.49942 | 29978 ft | 351 kts | 249° |
| 2026-04-23 05:33 | 34.75843 | -115.55371 | 29980 ft | 352 kts | 249° |
| 2026-04-23 05:33 | 34.73850 | -115.60808 | 29980 ft | 351 kts | 249° |
| 2026-04-23 05:34 | 34.71854 | -115.66240 | 29994 ft | 352 kts | 249° |
| 2026-04-23 05:34 | 34.69852 | -115.71672 | 29985 ft | 352 kts | 249° |
| 2026-04-23 05:35 | 34.67847 | -115.77100 | 29992 ft | 351 kts | 249° |
| 2026-04-23 05:35 | 34.65842 | -115.82517 | 29997 ft | 351 kts | 249° |
| 2026-04-23 05:36 | 34.63845 | -115.87904 | 30005 ft | 350 kts | 249° |
| 2026-04-23 05:36 | 34.61847 | -115.93295 | 29996 ft | 350 kts | 249° |
| 2026-04-23 05:37 | 34.59854 | -115.98690 | 30000 ft | 349 kts | 249° |
| 2026-04-23 05:37 | 34.57882 | -116.04035 | 29997 ft | 349 kts | 249° |
| 2026-04-23 05:38 | 34.55899 | -116.09404 | 30003 ft | 348 kts | 249° |
| 2026-04-23 05:38 | 34.53915 | -116.14769 | 30002 ft | 348 kts | 249° |
| 2026-04-23 05:39 | 34.51929 | -116.20130 | 30000 ft | 349 kts | 249° |
| 2026-04-23 05:39 | 34.49951 | -116.25459 | 29998 ft | 348 kts | 249° |
| 2026-04-23 05:40 | 34.47964 | -116.30805 | 29999 ft | 348 kts | 249° |
| 2026-04-23 05:40 | 34.45973 | -116.36154 | 29998 ft | 348 kts | 249° |
| 2026-04-23 05:41 | 34.43980 | -116.41499 | 29995 ft | 348 kts | 249° |
| 2026-04-23 05:41 | 34.41971 | -116.46843 | 30000 ft | 349 kts | 249° |
| 2026-04-23 05:42 | 34.39833 | -116.52140 | 29988 ft | 350 kts | 248° |
| 2026-04-23 05:42 | 34.37652 | -116.57425 | 30159 ft | 357 kts | 248° |
| 2026-04-23 05:42 | 34.36559 | -116.60062 | 29991 ft | 345 kts | 248° |
| 2026-04-23 05:43 | 34.35489 | -116.62644 | 29831 ft | 342 kts | 248° |
| 2026-04-23 05:43 | 34.34427 | -116.65215 | 29573 ft | 342 kts | 248° |
| 2026-04-23 05:43 | 34.33367 | -116.67801 | 29304 ft | 343 kts | 248° |
| 2026-04-23 05:43 | 34.32317 | -116.70395 | 29007 ft | 344 kts | 248° |
| 2026-04-23 05:44 | 34.31264 | -116.73011 | 28695 ft | 346 kts | 248° |
| 2026-04-23 05:44 | 34.30211 | -116.75633 | 28310 ft | 348 kts | 248° |
| 2026-04-23 05:44 | 34.29151 | -116.78270 | 27831 ft | 349 kts | 248° |
| 2026-04-23 05:44 | 34.28088 | -116.80913 | 27232 ft | 351 kts | 248° |
| 2026-04-23 05:45 | 34.27017 | -116.83577 | 26471 ft | 353 kts | 248° |
| 2026-04-23 05:45 | 34.25936 | -116.86260 | 25583 ft | 355 kts | 248° |
| 2026-04-23 05:45 | 34.24855 | -116.88939 | 24724 ft | 354 kts | 248° |
| 2026-04-23 05:45 | 34.23778 | -116.91606 | 24033 ft | 351 kts | 248° |
| 2026-04-23 05:46 | 34.22707 | -116.94252 | 23463 ft | 350 kts | 248° |
| 2026-04-23 05:46 | 34.21667 | -116.96858 | 22955 ft | 347 kts | 250° |
| 2026-04-23 05:46 | 34.20753 | -116.99574 | 22652 ft | 343 kts | 253° |
| 2026-04-23 05:46 | 34.19976 | -117.02251 | 22421 ft | 341 kts | 254° |
| 2026-04-23 05:47 | 34.19236 | -117.04960 | 22269 ft | 338 kts | 255° |
| 2026-04-23 05:47 | 34.18512 | -117.07660 | 22143 ft | 337 kts | 255° |
| 2026-04-23 05:47 | 34.17792 | -117.10353 | 22090 ft | 334 kts | 255° |
| 2026-04-23 05:47 | 34.17078 | -117.13011 | 21071 ft | 333 kts | 255° |
| 2026-04-23 05:48 | 34.16363 | -117.15646 | 20632 ft | 329 kts | 255° |
| 2026-04-23 05:48 | 34.15644 | -117.18281 | 20228 ft | 331 kts | 255° |
| 2026-04-23 05:48 | 34.14923 | -117.20911 | 19744 ft | 328 kts | 255° |
| 2026-04-23 05:48 | 34.14205 | -117.23524 | 19222 ft | 326 kts | 255° |
| 2026-04-23 05:49 | 34.13495 | -117.26107 | 18712 ft | 323 kts | 255° |
| 2026-04-23 05:49 | 34.12789 | -117.28671 | 18164 ft | 321 kts | 255° |
| 2026-04-23 05:49 | 34.12085 | -117.31225 | 17594 ft | 319 kts | 255° |
| 2026-04-23 05:49 | 34.11393 | -117.33738 | 17073 ft | 318 kts | 255° |
| 2026-04-23 05:50 | 34.10701 | -117.36268 | 16543 ft | 316 kts | 255° |
| 2026-04-23 05:50 | 34.10044 | -117.38793 | 16031 ft | 311 kts | 256° |
| 2026-04-23 05:50 | 34.09420 | -117.41248 | 15546 ft | 303 kts | 256° |
| 2026-04-23 05:50 | 34.08813 | -117.43669 | 15060 ft | 301 kts | 257° |
| 2026-04-23 05:51 | 34.08211 | -117.46077 | 14591 ft | 299 kts | 257° |
| 2026-04-23 05:51 | 34.07605 | -117.48473 | 14140 ft | 298 kts | 255° |
| 2026-04-23 05:51 | 34.06897 | -117.50774 | 14066 ft | 293 kts | 252° |
| 2026-04-23 05:51 | 34.06106 | -117.53081 | 13769 ft | 298 kts | 251° |
| 2026-04-23 05:52 | 34.05285 | -117.55391 | 13449 ft | 300 kts | 251° |
| 2026-04-23 05:52 | 34.04458 | -117.57694 | 13139 ft | 301 kts | 251° |
| 2026-04-23 05:52 | 34.03626 | -117.60004 | 12836 ft | 302 kts | 250° |
| 2026-04-23 05:52 | 34.02798 | -117.62300 | 12534 ft | 301 kts | 250° |
| 2026-04-23 05:53 | 34.01971 | -117.64596 | 12258 ft | 299 kts | 250° |
| 2026-04-23 05:53 | 34.01168 | -117.66858 | 11948 ft | 297 kts | 252° |
| 2026-04-23 05:53 | 34.00613 | -117.69238 | 11594 ft | 295 kts | 261° |
| 2026-04-23 05:53 | 34.00292 | -117.71656 | 11118 ft | 292 kts | 264° |
| 2026-04-23 05:54 | 34.00048 | -117.74085 | 10634 ft | 291 kts | 265° |
| 2026-04-23 05:54 | 33.99820 | -117.76496 | 10339 ft | 277 kts | 265° |
| 2026-04-23 05:54 | 33.99605 | -117.78734 | 10236 ft | 264 kts | 265° |
| 2026-04-23 05:54 | 33.99394 | -117.80939 | 9816 ft | 262 kts | 265° |
| 2026-04-23 05:55 | 33.99186 | -117.83119 | 9587 ft | 262 kts | 265° |
| 2026-04-23 05:55 | 33.98978 | -117.85291 | 9466 ft | 260 kts | 265° |
| 2026-04-23 05:55 | 33.98770 | -117.87454 | 9372 ft | 261 kts | 265° |
| 2026-04-23 05:55 | 33.98560 | -117.89626 | 8992 ft | 254 kts | 265° |
| 2026-04-23 05:56 | 33.98366 | -117.91574 | 8516 ft | 218 kts | 265° |
| 2026-04-23 05:56 | 33.98190 | -117.93351 | 8143 ft | 212 kts | 265° |
| 2026-04-23 05:56 | 33.98019 | -117.95110 | 7780 ft | 211 kts | 265° |
| 2026-04-23 05:56 | 33.97850 | -117.96850 | 7414 ft | 211 kts | 265° |
| 2026-04-23 05:57 | 33.97678 | -117.98611 | 7048 ft | 211 kts | 265° |
| 2026-04-23 05:57 | 33.97504 | -118.00372 | 6682 ft | 212 kts | 265° |
| 2026-04-23 05:57 | 33.97330 | -118.02138 | 6291 ft | 212 kts | 265° |
| 2026-04-23 05:57 | 33.97157 | -118.03900 | 5906 ft | 211 kts | 265° |
| 2026-04-23 05:58 | 33.96984 | -118.05652 | 5528 ft | 211 kts | 265° |
| 2026-04-23 05:58 | 33.96810 | -118.07403 | 5188 ft | 210 kts | 265° |
| 2026-04-23 05:58 | 33.96637 | -118.09135 | 4837 ft | 200 kts | 264° |
| 2026-04-23 05:58 | 33.96479 | -118.10686 | 4456 ft | 174 kts | 265° |
| 2026-04-23 05:59 | 33.96340 | -118.12135 | 4267 ft | 174 kts | 265° |
| 2026-04-23 05:59 | 33.96201 | -118.13591 | 4061 ft | 175 kts | 265° |
| 2026-04-23 05:59 | 33.96051 | -118.15159 | 3852 ft | 199 kts | 265° |
| 2026-04-23 05:59 | 33.95887 | -118.16838 | 3590 ft | 210 kts | 265° |
| 2026-04-23 06:00 | 33.95716 | -118.18555 | 3343 ft | 216 kts | 264° |
| 2026-04-23 06:00 | 33.95543 | -118.20280 | 3062 ft | 218 kts | 264° |
| 2026-04-23 06:00 | 33.95369 | -118.22015 | 2784 ft | 206 kts | 264° |
| 2026-04-23 06:00 | 33.95209 | -118.23577 | 2497 ft | 167 kts | 264° |
| 2026-04-23 06:01 | 33.95080 | -118.24837 | 2290 ft | 149 kts | 265° |
| 2026-04-23 06:01 | 33.94960 | -118.26052 | 2115 ft | 144 kts | 265° |
| 2026-04-23 06:01 | 33.94839 | -118.27257 | 1923 ft | 145 kts | 265° |
| 2026-04-23 06:01 | 33.94719 | -118.28458 | 1748 ft | 144 kts | 265° |
| 2026-04-23 06:02 | 33.94600 | -118.29642 | 1536 ft | 141 kts | 264° |
| 2026-04-23 06:02 | 33.94483 | -118.30813 | 1362 ft | 140 kts | 264° |
| 2026-04-23 06:02 | 33.94367 | -118.31972 | 1176 ft | 138 kts | 264° |
| 2026-04-23 06:02 | 33.94252 | -118.33117 | 996 ft | 137 kts | 263° |
| 2026-04-23 06:03 | 33.94126 | -118.34348 | 919 ft | 174 kts | 263° |
| 2026-04-23 06:03 | 33.93973 | -118.35821 | 847 ft | 155 kts | 262° |
| 2026-04-23 06:03 | 33.93855 | -118.36988 | 452 ft | 132 kts | 264° |
| 2026-04-23 06:03 | 33.93759 | -118.38045 | 242 ft | 128 kts | 262° |
| 2026-04-23 06:04 | 33.93658 | -118.39113 | 142 ft | 127 kts | 262° |
| 2026-04-23 06:04 | 33.93557 | -118.39997 | 133 ft | 73 kts | 261° |
| 2026-04-23 06:04 | 33.93524 | -118.40297 | 131 ft | 12 kts | 263° |
| 2026-04-23 06:04 | 33.93509 | -118.40444 | 125 ft | 26 kts | 263° |
| 2026-04-23 06:05 | 33.93473 | -118.40705 | 131 ft | 21 kts | 247° |
| 2026-04-23 06:05 | 33.93427 | -118.40735 | 129 ft | 7 kts | 171° |
| 2026-04-23 06:05 | 33.93386 | -118.40731 | 130 ft | 4 kts | 171° |
| 2026-04-23 06:05 | 33.93368 | -118.40708 | 129 ft | 1 kts | 112° |
| 2026-04-23 06:06 | 33.93372 | -118.40671 | 125 ft | 8 kts | 85° |
| 2026-04-23 06:06 | 33.93379 | -118.40576 | 128 ft | 14 kts | 85° |
| 2026-04-23 06:06 | 33.93394 | -118.40436 | 129 ft | 19 kts | 83° |
| 2026-04-23 06:06 | 33.93402 | -118.40324 | 133 ft | 1 kts | 101° |
| 2026-04-23 06:07 | 33.93389 | -118.40309 | 126 ft | 5 kts | 139° |
| 2026-04-23 06:07 | 33.93353 | -118.40300 | 131 ft | 7 kts | 175° |
| 2026-04-23 06:07 | 33.93319 | -118.40295 | 131 ft | 2 kts | 173° |
| 2026-04-23 06:07 | 33.93316 | -118.40294 | 131 ft | 0 kts | 174° |